createdAt,value
2022-10-31T00:01:33.301Z,47.60
2022-10-31T00:04:01.255Z,47.60
2022-10-31T00:06:29.362Z,47.60
2022-10-31T00:08:59.214Z,47.70
2022-10-31T00:11:28.892Z,47.70
2022-10-31T00:13:57.151Z,47.70
2022-10-31T00:16:27.048Z,47.60
2022-10-31T00:18:56.841Z,47.60
2022-10-31T00:21:25.191Z,47.60
2022-10-31T00:23:53.275Z,47.60
2022-10-31T00:26:21.277Z,47.70
2022-10-31T00:28:51.918Z,47.80
2022-10-31T00:31:19.746Z,47.80
2022-10-31T00:33:47.594Z,47.70
2022-10-31T00:36:17.558Z,47.70
2022-10-31T00:38:46.775Z,47.70
2022-10-31T00:41:16.204Z,47.70
2022-10-31T00:43:44.578Z,47.70
2022-10-31T00:46:14.472Z,47.60
2022-10-31T00:48:42.491Z,47.60
2022-10-31T00:51:10.624Z,47.60
2022-10-31T00:53:38.479Z,47.60
2022-10-31T00:56:07.396Z,47.70
2022-10-31T00:58:35.222Z,47.70
2022-10-31T01:01:03.203Z,47.60
2022-10-31T01:03:34.539Z,47.60
2022-10-31T01:06:04.696Z,47.60
2022-10-31T01:08:32.911Z,47.50
2022-10-31T01:11:07.240Z,47.50
2022-10-31T01:13:35.968Z,47.60
2022-10-31T01:16:05.356Z,47.50
2022-10-31T01:18:35.370Z,47.70
2022-10-31T01:21:05.647Z,47.70
2022-10-31T01:23:34.040Z,47.70
2022-10-31T01:26:08.432Z,47.70
2022-10-31T01:28:37.033Z,47.70
2022-10-31T01:31:08.236Z,47.60
2022-10-31T01:33:38.541Z,47.70
2022-10-31T01:36:15.136Z,47.80
2022-10-31T01:38:43.061Z,47.90
2022-10-31T01:41:12.424Z,47.70
2022-10-31T01:43:49.307Z,47.80
2022-10-31T01:46:19.229Z,48.10
2022-10-31T01:48:49.588Z,47.90
2022-10-31T01:51:21.972Z,47.90
2022-10-31T01:53:52.404Z,47.90
2022-10-31T01:56:20.749Z,47.70
2022-10-31T01:58:49.191Z,47.80
2022-10-31T02:01:18.771Z,47.80
2022-10-31T02:03:49.846Z,47.90
2022-10-31T02:06:27.751Z,47.90
2022-10-31T02:08:56.695Z,48.00
2022-10-31T02:11:25.153Z,47.70
2022-10-31T02:13:53.248Z,47.60
2022-10-31T02:16:21.114Z,47.60
2022-10-31T02:18:50.292Z,47.60
2022-10-31T02:21:23.059Z,47.60
2022-10-31T02:24:27.415Z,47.70
2022-10-31T02:27:22.122Z,48.00
2022-10-31T02:30:05.355Z,48.00
2022-10-31T02:32:52.036Z,48.00
2022-10-31T02:35:32.401Z,48.40
2022-10-31T02:38:06.306Z,48.60
2022-10-31T02:40:38.696Z,48.60
2022-10-31T02:45:48.088Z,48.80
2022-10-31T02:48:21.728Z,48.70
2022-10-31T02:50:54.960Z,48.90
2022-10-31T02:53:22.771Z,48.90
2022-10-31T02:56:00.111Z,48.80
2022-10-31T02:58:33.056Z,49.20
2022-10-31T03:01:20.250Z,49.10
2022-10-31T03:04:01.954Z,49.30
2022-10-31T03:06:34.392Z,49.30
2022-10-31T03:09:13.168Z,49.30
2022-10-31T03:11:47.956Z,49.30
2022-10-31T03:14:23.586Z,49.30
2022-10-31T03:16:53.137Z,49.20
2022-10-31T03:19:27.732Z,49.00
2022-10-31T03:22:00.510Z,49.10
2022-10-31T03:24:33.455Z,49.00
2022-10-31T03:27:03.295Z,48.90
2022-10-31T03:29:34.921Z,48.80
2022-10-31T03:32:08.484Z,48.70
2022-10-31T03:34:39.746Z,48.60
2022-10-31T03:37:11.886Z,48.50
2022-10-31T03:39:42.487Z,48.40
2022-10-31T03:42:13.703Z,48.20
2022-10-31T03:44:45.047Z,48.10
2022-10-31T03:47:13.004Z,48.10
2022-10-31T03:49:42.523Z,48.10
2022-10-31T03:52:21.347Z,48.10
2022-10-31T03:54:55.101Z,48.30
2022-10-31T03:57:27.677Z,48.20
2022-10-31T03:59:59.269Z,48.10
2022-10-31T04:02:32.409Z,48.10
2022-10-31T04:05:03.348Z,48.20
2022-10-31T04:07:35.336Z,48.00
2022-10-31T04:10:08.861Z,48.00
2022-10-31T04:12:38.233Z,48.00
2022-10-31T04:15:09.728Z,48.30
2022-10-31T04:17:42.206Z,47.80
2022-10-31T04:20:12.421Z,47.80
2022-10-31T04:22:40.291Z,47.80
2022-10-31T04:25:09.489Z,47.60
2022-10-31T04:27:37.280Z,47.70
2022-10-31T04:30:05.770Z,47.60
2022-10-31T04:32:33.578Z,47.70
2022-10-31T04:35:01.433Z,47.60
2022-10-31T04:37:30.583Z,47.70
2022-10-31T04:39:58.412Z,47.90
2022-10-31T04:42:26.244Z,48.30
2022-10-31T04:44:54.045Z,47.80
2022-10-31T04:47:21.867Z,47.90
2022-10-31T04:49:49.796Z,47.90
2022-10-31T04:52:17.625Z,47.90
2022-10-31T04:54:46.805Z,47.90
2022-10-31T04:57:14.631Z,48.00
2022-10-31T04:59:42.437Z,47.90
2022-10-31T05:02:10.396Z,48.00
2022-10-31T05:04:38.288Z,48.00
2022-10-31T05:07:06.129Z,48.00
2022-10-31T05:09:34.053Z,48.00
2022-10-31T05:12:03.260Z,47.90
2022-10-31T05:14:31.075Z,47.80
2022-10-31T05:16:58.903Z,47.80
2022-10-31T05:19:26.700Z,47.70
2022-10-31T05:21:54.520Z,47.70
2022-10-31T05:24:22.656Z,47.60
2022-10-31T05:26:50.930Z,47.60
2022-10-31T05:29:20.147Z,47.50
2022-10-31T05:31:47.955Z,47.50
2022-10-31T05:34:15.767Z,47.40
2022-10-31T05:36:43.575Z,47.30
2022-10-31T05:39:11.352Z,47.30
2022-10-31T05:41:39.180Z,47.20
2022-10-31T05:44:07.373Z,47.10
2022-10-31T05:46:36.650Z,47.20
2022-10-31T05:49:04.550Z,47.20
2022-10-31T05:51:32.408Z,47.30
2022-10-31T05:54:00.210Z,47.30
2022-10-31T05:56:28.037Z,47.30
2022-10-31T05:58:56.044Z,47.30
2022-10-31T06:01:23.895Z,47.30
2022-10-31T06:03:53.098Z,47.40
2022-10-31T06:06:21.408Z,47.50
2022-10-31T06:08:49.228Z,47.50
2022-10-31T06:11:17.050Z,47.50
2022-10-31T06:13:45.904Z,47.50
2022-10-31T06:16:13.732Z,47.50
2022-10-31T06:18:41.555Z,47.50
2022-10-31T06:21:12.465Z,47.50
2022-10-31T06:23:42.848Z,47.60
2022-10-31T06:26:10.840Z,47.50
2022-10-31T06:28:38.681Z,47.50
2022-10-31T06:31:06.888Z,47.60
2022-10-31T06:33:35.130Z,47.60
2022-10-31T06:36:03.349Z,47.70
2022-10-31T06:38:32.502Z,47.70
2022-10-31T06:41:03.663Z,47.80
2022-10-31T06:43:31.591Z,47.90
2022-10-31T06:46:00.028Z,47.90
2022-10-31T06:48:27.873Z,48.20
2022-10-31T06:50:59.810Z,48.30
2022-10-31T06:53:27.760Z,48.40
2022-10-31T06:55:57.309Z,48.40
2022-10-31T06:58:25.346Z,48.40
2022-10-31T07:00:53.200Z,48.40
2022-10-31T07:03:21.224Z,48.40
2022-10-31T07:05:49.060Z,48.50
2022-10-31T07:08:16.930Z,48.50
2022-10-31T07:10:45.387Z,48.50
2022-10-31T07:13:16.323Z,48.50
2022-10-31T07:15:45.559Z,48.90
2022-10-31T07:18:14.192Z,48.90
2022-10-31T07:20:42.069Z,49.00
2022-10-31T07:23:10.820Z,49.00
2022-10-31T07:25:38.679Z,49.20
2022-10-31T07:28:06.854Z,49.40
2022-10-31T07:30:36.189Z,49.70
2022-10-31T07:33:04.306Z,50.00
2022-10-31T07:35:32.765Z,50.10
2022-10-31T07:38:09.366Z,50.40
2022-10-31T07:40:37.437Z,50.90
2022-10-31T07:43:11.543Z,51.50
2022-10-31T07:45:43.440Z,51.40
2022-10-31T07:48:11.406Z,51.60
2022-10-31T07:50:40.142Z,51.70
2022-10-31T07:53:09.564Z,52.10
2022-10-31T07:55:38.126Z,52.30
2022-10-31T07:58:08.047Z,52.30
2022-10-31T08:00:37.576Z,52.60
2022-10-31T08:03:08.421Z,52.70
2022-10-31T08:05:36.696Z,52.70
2022-10-31T08:08:05.412Z,52.60
2022-10-31T08:10:34.444Z,52.60
2022-10-31T08:13:04.595Z,52.60
2022-10-31T08:15:32.829Z,52.60
2022-10-31T08:18:01.014Z,52.60
2022-10-31T08:20:30.486Z,52.50
2022-10-31T08:22:59.825Z,52.50
2022-10-31T08:25:30.974Z,52.30
2022-10-31T08:28:02.639Z,52.20
2022-10-31T08:30:37.246Z,52.20
2022-10-31T08:33:07.058Z,52.30
2022-10-31T08:35:36.203Z,52.10
2022-10-31T08:38:04.997Z,52.10
2022-10-31T08:40:34.125Z,52.00
2022-10-31T08:43:03.688Z,51.90
2022-10-31T08:45:33.091Z,51.90
2022-10-31T08:48:02.186Z,52.00
2022-10-31T08:50:31.555Z,52.00
2022-10-31T08:53:05.912Z,52.00
2022-10-31T08:55:35.684Z,52.00
2022-10-31T08:58:04.285Z,52.00
2022-10-31T09:00:32.571Z,52.10
2022-10-31T09:03:01.769Z,52.10
2022-10-31T09:05:32.092Z,52.10
2022-10-31T09:08:00.998Z,52.10
2022-10-31T09:10:32.262Z,52.10
2022-10-31T09:13:01.233Z,52.10
2022-10-31T09:15:30.292Z,52.20
2022-10-31T09:17:58.719Z,52.20
2022-10-31T09:20:26.858Z,52.20
2022-10-31T09:22:58.989Z,52.40
2022-10-31T09:25:27.578Z,52.70
2022-10-31T09:27:59.770Z,52.80
2022-10-31T09:30:30.484Z,53.10
2022-10-31T09:32:59.124Z,53.30
2022-10-31T09:35:27.536Z,53.80
2022-10-31T09:37:58.674Z,54.30
2022-10-31T09:40:32.307Z,54.80
2022-10-31T09:43:10.115Z,55.30
2022-10-31T09:45:46.087Z,55.90
2022-10-31T09:48:33.759Z,56.10
2022-10-31T09:51:06.352Z,56.10
2022-10-31T09:53:39.740Z,55.90
2022-10-31T09:56:10.708Z,55.90
2022-10-31T09:58:46.959Z,56.10
2022-10-31T10:01:26.702Z,56.60
2022-10-31T10:03:59.498Z,57.10
2022-10-31T10:06:31.555Z,57.30
2022-10-31T10:08:59.425Z,57.40
2022-10-31T10:11:43.516Z,57.80
2022-10-31T10:14:28.825Z,57.40
2022-10-31T10:17:13.851Z,56.70
2022-10-31T10:20:06.397Z,55.90
2022-10-31T10:22:44.860Z,55.10
2022-10-31T10:25:21.745Z,54.60
2022-10-31T10:27:59.202Z,54.20
2022-10-31T10:30:36.187Z,54.20
2022-10-31T10:33:10.176Z,53.80
2022-10-31T10:35:43.631Z,53.50
2022-10-31T10:38:19.249Z,53.00
2022-10-31T10:40:48.320Z,52.30
2022-10-31T10:43:25.659Z,52.30
2022-10-31T10:46:23.523Z,52.30
2022-10-31T10:48:57.875Z,52.30
2022-10-31T10:51:54.729Z,52.20
2022-10-31T10:54:48.799Z,52.20
2022-10-31T10:57:29.784Z,52.40
2022-10-31T10:59:57.955Z,52.80
2022-10-31T11:02:30.374Z,52.90
2022-10-31T11:05:00.601Z,52.70
2022-10-31T11:07:39.184Z,52.40
2022-10-31T11:10:14.130Z,52.20
2022-10-31T11:12:43.182Z,52.10
2022-10-31T11:15:22.175Z,52.00
2022-10-31T11:17:53.476Z,51.80
2022-10-31T11:20:32.851Z,51.80
2022-10-31T11:23:07.263Z,51.90
2022-10-31T11:25:35.540Z,52.30
2022-10-31T11:28:04.833Z,53.10
2022-10-31T11:30:47.080Z,54.20
2022-10-31T11:33:24.780Z,54.60
2022-10-31T11:35:57.090Z,54.60
2022-10-31T11:38:32.003Z,54.90
2022-10-31T11:41:07.115Z,55.60
2022-10-31T11:43:35.025Z,56.10
2022-10-31T11:46:11.546Z,57.00
2022-10-31T11:48:40.767Z,57.40
2022-10-31T11:51:09.400Z,58.70
2022-10-31T11:53:37.701Z,60.30
2022-10-31T11:56:12.240Z,61.60
2022-10-31T11:58:40.080Z,62.40
2022-10-31T12:01:08.312Z,61.20
2022-10-31T12:03:45.896Z,59.50
2022-10-31T12:06:19.843Z,56.70
2022-10-31T12:08:48.417Z,54.50
2022-10-31T12:11:33.628Z,52.90
2022-10-31T12:14:16.058Z,51.10
2022-10-31T12:16:50.839Z,50.00
2022-10-31T12:19:28.168Z,49.00
2022-10-31T12:22:06.408Z,48.30
2022-10-31T12:24:56.926Z,47.50
2022-10-31T12:27:34.855Z,47.80
2022-10-31T12:30:21.647Z,47.20
2022-10-31T12:33:17.358Z,47.00
2022-10-31T12:35:57.966Z,47.10
2022-10-31T12:38:44.923Z,47.20
2022-10-31T12:41:26.235Z,47.20
2022-10-31T12:44:02.310Z,47.50
2022-10-31T12:46:52.910Z,47.70
2022-10-31T12:49:32.703Z,47.80
2022-10-31T12:52:15.930Z,48.20
2022-10-31T12:54:55.805Z,48.20
2022-10-31T12:57:29.719Z,48.60
2022-10-31T13:00:02.798Z,48.70
2022-10-31T13:02:35.435Z,48.90
2022-10-31T13:05:06.835Z,49.00
2022-10-31T13:07:39.867Z,49.30
2022-10-31T13:10:15.569Z,49.50
2022-10-31T13:12:45.117Z,49.60
2022-10-31T13:15:18.737Z,49.60
2022-10-31T13:17:49.889Z,49.60
2022-10-31T13:20:23.747Z,49.50
2022-10-31T13:22:56.147Z,49.50
2022-10-31T13:25:27.322Z,49.50
2022-10-31T13:27:58.966Z,49.40
2022-10-31T13:30:29.750Z,49.40
2022-10-31T13:33:04.076Z,49.40
2022-10-31T13:35:39.878Z,49.50
2022-10-31T13:38:18.459Z,49.50
2022-10-31T13:40:53.606Z,49.50
2022-10-31T13:43:30.919Z,49.30
2022-10-31T13:45:58.784Z,49.40
2022-10-31T13:48:42.144Z,49.30
2022-10-31T13:51:11.864Z,49.40
2022-10-31T13:53:46.281Z,49.40
2022-10-31T13:56:21.098Z,49.50
2022-10-31T13:59:20.718Z,49.50
2022-10-31T14:02:01.061Z,49.50
2022-10-31T14:04:35.073Z,49.40
2022-10-31T14:07:09.438Z,49.60
2022-10-31T14:09:41.111Z,49.80
2022-10-31T14:12:14.128Z,49.80
2022-10-31T14:14:49.825Z,49.80
2022-10-31T14:17:25.328Z,50.20
2022-10-31T14:20:22.087Z,50.10
2022-10-31T14:22:50.305Z,50.40
2022-10-31T14:25:31.158Z,50.20
2022-10-31T14:28:00.192Z,50.60
2022-10-31T14:30:30.285Z,50.40
2022-10-31T14:33:01.457Z,50.60
2022-10-31T14:35:44.438Z,50.60
2022-10-31T14:38:36.222Z,50.80
2022-10-31T14:41:37.734Z,50.80
2022-10-31T14:44:26.352Z,50.80
2022-10-31T14:47:04.215Z,50.80
2022-10-31T14:49:48.771Z,50.90
2022-10-31T14:52:18.698Z,50.90
2022-10-31T14:54:51.266Z,50.80
2022-10-31T14:57:24.548Z,50.80
2022-10-31T15:00:00.669Z,50.70
2022-10-31T15:02:37.482Z,50.60
2022-10-31T15:05:10.024Z,50.50
2022-10-31T15:07:40.958Z,50.70
2022-10-31T15:10:22.300Z,50.40
2022-10-31T15:12:51.908Z,50.70
2022-10-31T15:15:22.953Z,50.50
2022-10-31T15:17:54.068Z,50.50
2022-10-31T15:20:25.081Z,50.50
2022-10-31T15:22:53.241Z,50.50
2022-10-31T15:25:23.114Z,50.50
2022-10-31T15:27:54.083Z,50.50
2022-10-31T15:30:23.489Z,50.50
2022-10-31T15:32:58.354Z,50.50
2022-10-31T15:35:28.846Z,50.50
2022-10-31T15:37:58.331Z,50.50
2022-10-31T15:40:29.024Z,50.50
2022-10-31T15:43:01.216Z,50.50
2022-10-31T15:45:31.483Z,50.60
2022-10-31T15:48:02.406Z,50.50
2022-10-31T15:50:34.727Z,50.40
2022-10-31T15:53:03.817Z,50.50
2022-10-31T15:55:35.001Z,50.40
2022-10-31T15:58:12.548Z,50.40
2022-10-31T16:00:40.827Z,50.40
2022-10-31T16:03:24.762Z,50.30
2022-10-31T16:05:54.607Z,50.40
2022-10-31T16:08:27.614Z,50.20
2022-10-31T16:10:56.891Z,50.50
2022-10-31T16:13:30.044Z,50.20
2022-10-31T16:16:32.750Z,50.40
2022-10-31T16:18:51.358Z,50.30
2022-10-31T16:21:26.683Z,50.10
2022-10-31T16:24:02.739Z,50.30
2022-10-31T16:26:33.278Z,50.20
2022-10-31T16:29:05.552Z,50.00
2022-10-31T16:31:39.139Z,50.60
2022-10-31T16:34:15.902Z,50.10
2022-10-31T16:36:44.252Z,50.10
2022-10-31T16:39:12.174Z,49.80
2022-10-31T16:41:42.380Z,49.80
2022-10-31T16:44:19.437Z,49.80
2022-10-31T16:46:47.436Z,50.00
2022-10-31T16:49:17.341Z,49.70
2022-10-31T16:51:46.472Z,50.30
2022-10-31T16:54:14.272Z,49.70
2022-10-31T16:56:43.913Z,49.70
2022-10-31T16:59:16.344Z,49.70
2022-10-31T17:01:46.672Z,49.80
2022-10-31T17:04:16.266Z,49.80
2022-10-31T17:06:44.209Z,49.80
2022-10-31T17:09:12.176Z,49.70
2022-10-31T17:11:49.450Z,49.70
2022-10-31T17:14:20.490Z,49.80
2022-10-31T17:16:48.391Z,49.70
2022-10-31T17:19:16.418Z,49.60
2022-10-31T17:21:44.321Z,49.60
2022-10-31T17:24:14.456Z,49.60
2022-10-31T17:26:43.284Z,49.60
2022-10-31T17:29:11.150Z,49.50
2022-10-31T17:31:40.315Z,49.50
2022-10-31T17:34:08.647Z,49.50
2022-10-31T17:36:37.392Z,49.50
2022-10-31T17:39:07.830Z,49.50
2022-10-31T17:41:35.858Z,49.40
2022-10-31T17:44:03.691Z,49.40
2022-10-31T17:46:31.585Z,49.50
2022-10-31T17:49:01.738Z,49.50
2022-10-31T17:51:29.591Z,49.50
2022-10-31T17:53:58.589Z,49.40
2022-10-31T17:56:26.614Z,49.50
2022-10-31T17:58:57.078Z,49.50
2022-10-31T18:01:25.372Z,49.60
2022-10-31T18:03:53.322Z,49.60
2022-10-31T18:06:22.523Z,49.60
2022-10-31T18:08:50.304Z,49.50
2022-10-31T18:11:20.683Z,49.50
2022-10-31T18:13:48.753Z,49.50
2022-10-31T18:16:19.062Z,49.40
2022-10-31T18:18:51.256Z,49.40
2022-10-31T18:21:19.094Z,49.50
2022-10-31T18:23:48.799Z,49.40
2022-10-31T18:26:16.631Z,49.40
2022-10-31T18:28:44.451Z,49.90
2022-10-31T18:31:12.280Z,49.30
2022-10-31T18:33:42.331Z,49.40
2022-10-31T18:36:11.805Z,49.50
2022-10-31T18:38:40.807Z,49.40
2022-10-31T18:41:10.430Z,49.60
2022-10-31T18:43:38.837Z,49.20
2022-10-31T18:46:08.798Z,49.20
2022-10-31T18:48:37.180Z,49.20
2022-10-31T18:51:05.812Z,49.20
2022-10-31T18:53:34.167Z,49.20
2022-10-31T18:56:02.454Z,49.10
2022-10-31T18:58:33.219Z,49.10
2022-10-31T19:01:01.504Z,49.10
2022-10-31T19:03:29.553Z,49.00
2022-10-31T19:05:57.639Z,49.10
2022-10-31T19:08:25.537Z,49.10
2022-10-31T19:10:53.520Z,49.10
2022-10-31T19:13:21.349Z,49.10
2022-10-31T19:15:50.580Z,49.20
2022-10-31T19:18:18.876Z,49.60
2022-10-31T19:20:46.723Z,49.20
2022-10-31T19:23:14.975Z,49.00
2022-10-31T19:28:15.531Z,49.00
2022-10-31T19:30:43.379Z,48.90
2022-10-31T19:33:12.540Z,48.80
2022-10-31T19:35:40.353Z,49.00
2022-10-31T19:38:08.171Z,48.80
2022-10-31T19:40:37.727Z,48.90
2022-10-31T19:43:05.554Z,48.80
2022-10-31T19:45:33.410Z,48.80
2022-10-31T19:48:01.425Z,48.80
2022-10-31T19:50:31.032Z,48.90
2022-10-31T19:52:59.026Z,48.90
2022-10-31T19:55:26.870Z,48.80
2022-10-31T19:58:01.967Z,48.80
2022-10-31T20:00:30.272Z,48.80
2022-10-31T20:02:58.451Z,48.80
2022-10-31T20:05:26.850Z,49.00
2022-10-31T20:07:57.124Z,49.00
2022-10-31T20:10:25.192Z,49.00
2022-10-31T20:12:53.000Z,48.90
2022-10-31T20:15:20.824Z,48.80
2022-10-31T20:17:48.658Z,48.80
2022-10-31T20:20:16.615Z,48.70
2022-10-31T20:22:47.141Z,48.70
2022-10-31T20:25:16.555Z,48.70
2022-10-31T20:27:44.414Z,48.60
2022-10-31T20:30:13.650Z,48.60
2022-10-31T20:32:42.692Z,48.60
2022-10-31T20:35:13.081Z,48.60
2022-10-31T20:37:41.071Z,48.50
2022-10-31T20:40:10.339Z,48.60
2022-10-31T20:42:39.483Z,48.60
2022-10-31T20:45:08.233Z,48.70
2022-10-31T20:47:36.111Z,48.60
2022-10-31T20:50:05.256Z,48.60
2022-10-31T20:52:33.428Z,48.60
2022-10-31T20:55:01.297Z,48.60
2022-10-31T20:57:29.203Z,48.60
2022-10-31T20:59:58.350Z,48.60
2022-10-31T21:02:26.312Z,48.50
2022-10-31T21:04:54.242Z,48.50
2022-10-31T21:07:22.085Z,48.40
2022-10-31T21:09:49.963Z,48.50
2022-10-31T21:12:17.803Z,48.50
2022-10-31T21:14:45.615Z,48.50
2022-10-31T21:17:14.754Z,48.60
2022-10-31T21:19:42.622Z,48.70
2022-10-31T21:22:10.474Z,48.60
2022-10-31T21:24:38.882Z,48.60
2022-10-31T21:27:09.946Z,48.60
2022-10-31T21:29:40.424Z,48.60
2022-10-31T21:32:08.227Z,48.50
2022-10-31T21:34:37.934Z,48.50
2022-10-31T21:37:06.120Z,48.60
2022-10-31T21:39:33.993Z,48.70
2022-10-31T21:42:01.842Z,48.70
2022-10-31T21:44:29.715Z,48.80
2022-10-31T21:46:57.610Z,48.80
2022-10-31T21:49:25.429Z,48.80
2022-10-31T21:51:54.619Z,48.60
2022-10-31T21:54:27.423Z,48.50
2022-10-31T21:56:55.456Z,48.50
2022-10-31T21:59:23.371Z,48.40
2022-10-31T22:01:51.928Z,48.40
2022-10-31T22:04:20.261Z,48.30
2022-10-31T22:06:48.065Z,48.40
2022-10-31T22:09:19.604Z,48.30
2022-10-31T22:11:47.788Z,48.40
2022-10-31T22:14:16.298Z,48.20
2022-10-31T22:16:44.699Z,48.50
2022-10-31T22:19:14.244Z,48.20
2022-10-31T22:21:44.260Z,48.20
2022-10-31T22:24:12.267Z,48.20
2022-10-31T22:26:41.509Z,48.30
2022-10-31T22:29:12.678Z,48.30
2022-10-31T22:31:42.299Z,48.30
2022-10-31T22:34:10.922Z,48.30
2022-10-31T22:36:39.258Z,48.30
2022-10-31T22:39:08.025Z,48.80
2022-10-31T22:41:37.171Z,48.20
2022-10-31T22:44:06.926Z,48.30
2022-10-31T22:46:37.068Z,48.20
2022-10-31T22:49:06.947Z,48.30
2022-10-31T22:51:37.816Z,48.30
2022-10-31T22:54:07.943Z,48.40
2022-10-31T22:56:35.962Z,48.40
2022-10-31T22:59:04.322Z,48.40
2022-10-31T23:01:34.965Z,48.50
2022-10-31T23:04:03.171Z,48.60
2022-10-31T23:06:33.311Z,48.70
2022-10-31T23:09:02.400Z,48.80
2022-10-31T23:11:33.159Z,48.80
2022-10-31T23:14:11.916Z,48.90
2022-10-31T23:16:44.209Z,49.00
2022-10-31T23:19:13.788Z,49.10
2022-10-31T23:21:56.274Z,49.00
2022-10-31T23:24:26.784Z,49.10
2022-10-31T23:27:10.173Z,49.10
2022-10-31T23:29:41.118Z,49.30
2022-10-31T23:32:12.346Z,50.00
2022-10-31T23:34:40.251Z,49.50
2022-10-31T23:39:41.535Z,49.60
2022-10-31T23:42:09.692Z,49.60
2022-10-31T23:44:37.565Z,49.60
2022-10-31T23:47:05.944Z,49.60
2022-10-31T23:49:35.443Z,49.60
2022-10-31T23:52:03.501Z,49.60
2022-10-31T23:54:31.380Z,49.70
2022-10-31T23:56:59.366Z,50.20
2022-10-31T23:59:29.013Z,49.70
